KAOH

Lima Allen County Airport

Lima, Ohio, USA
METAR KAOH 101453Z AUTO 02004KT 2 1/2SM BR OVC004 M05/M07 A3027 RMK AO2 SLP265 T10501067 53012
Observed Flight Rules
Dec-10 @ 14:53 UTC (24 minutes ago) Instrument Flight Rules
Wind Visibility Clouds Conditions
20° at 4 knots 2 1/2 miles
  • Overcast at 400' AGL
  • Mist
Temperatures Readings
Current -5°C / 23°F
Dewpoint -7°C / 19°F
Humidity 86%
Altimeter 30.27" Hg
Pressure 1026.5 hPa
Elevation 296
METAR KAOH 101453Z AUTO 02004KT 2 1/2SM BR OVC004 M05/M07 A3027 RMK AO2 SLP265 T10501067 53012
Observed Flight Rules
Dec-10 @ 14:53 UTC
(24 minutes ago)
LIFR
Wind Visibility
20° at 4 knots 2 1/2 miles
Clouds
  • Overcast at 400' AGL
Conditions
  • Mist
Temperature Dewpoint
-5°C / 23°F -7°C / 19°F
Humidity Altimeter Pressure
86% 30.27" Hg 1026.5 hPa